Time;durP1;ratioP1;P1;durP2;ratioP2;P2;SDS_P1;SDS_P2;PMS_P1;PMS_P2;Temp;Humidity;BMP_temperature;BMP_pressure;BME280_temperature;BME280_humidity;BME280_pressure;Samples;Min_cycle;Max_cycle;Signal;HPM_P1;HPM_P2
2023/05/21 00:01:44;;;;;;;22.93;12.13;;;15.20;99.90;;;;;;4414380;28;660925;-74
2023/05/21 00:04:33;;;;;;;22.25;12.43;;;15.20;99.90;;;;;;4420957;28;660614;-74
2023/05/21 00:07:20;;;;;;;19.43;12.40;;;15.20;99.90;;;;;;4431236;28;660893;-73
2023/05/21 00:10:08;;;;;;;17.73;11.70;;;15.20;99.90;;;;;;4439386;28;661984;-74
2023/05/21 00:12:55;;;;;;;20.47;12.00;;;15.30;99.90;;;;;;4417734;28;660841;-74
2023/05/21 00:15:43;;;;;;;15.73;11.50;;;15.30;99.90;;;;;;4436723;28;662077;-74
2023/05/21 00:18:31;;;;;;;15.73;10.90;;;15.40;99.90;;;;;;4415291;28;661010;-73
2023/05/21 00:21:21;;;;;;;18.20;10.93;;;15.30;99.90;;;;;;4440726;28;661331;-74
2023/05/21 00:24:09;;;;;;;16.83;11.13;;;15.40;99.90;;;;;;4413398;28;661036;-74
2023/05/21 00:26:56;;;;;;;16.27;10.77;;;15.40;99.90;;;;;;4418071;28;660807;-73
2023/05/21 00:29:43;;;;;;;15.60;10.80;;;15.40;99.90;;;;;;4439052;28;660447;-74
2023/05/21 00:32:30;;;;;;;18.97;10.20;;;15.40;99.90;;;;;;4413754;28;661034;-73
2023/05/21 00:35:18;;;;;;;16.33;10.27;;;15.40;99.90;;;;;;4439673;28;662630;-74
2023/05/21 00:38:07;;;;;;;14.90;10.10;;;15.40;99.90;;;;;;4416725;28;661467;-72
2023/05/21 00:40:54;;;;;;;16.50;10.00;;;15.50;99.90;;;;;;4437419;28;660414;-74
2023/05/21 00:43:43;;;;;;;16.15;10.40;;;15.50;99.90;;;;;;4413285;28;660788;-75
2023/05/21 00:46:30;;;;;;;14.87;10.40;;;15.50;99.90;;;;;;4418111;28;661120;-73
2023/05/21 00:49:17;;;;;;;20.40;10.77;;;15.50;99.90;;;;;;4442290;28;660439;-74
2023/05/21 00:52:06;;;;;;;14.23;9.30;;;15.50;99.90;;;;;;4440112;28;660480;-74
2023/05/21 00:54:54;;;;;;;23.53;10.03;;;15.50;99.90;;;;;;4414956;28;659634;-74
2023/05/21 00:57:42;;;;;;;17.17;9.73;;;15.50;99.90;;;;;;4416228;28;660964;-74
2023/05/21 01:00:29;;;;;;;19.80;10.43;;;15.50;99.90;;;;;;4441228;28;659793;-74
2023/05/21 01:03:16;;;;;;;13.40;10.10;;;15.50;99.90;;;;;;4419136;28;661644;-75
2023/05/21 01:06:04;;;;;;;16.37;10.03;;;15.50;99.90;;;;;;4436289;28;661212;-74
2023/05/21 01:08:52;;;;;;;18.03;9.13;;;15.50;99.90;;;;;;4418089;28;660995;-74
2023/05/21 01:11:41;;;;;;;14.83;9.17;;;15.50;99.90;;;;;;4439700;28;660160;-75
2023/05/21 01:14:28;;;;;;;20.47;8.97;;;15.50;99.90;;;;;;4414176;28;661415;-75
2023/05/21 01:17:15;;;;;;;12.00;8.57;;;15.50;99.90;;;;;;4422022;28;660774;-74
2023/05/21 01:20:08;;;;;;;14.13;9.07;;;15.50;99.90;;;;;;4439310;28;661034;-74
2023/05/21 01:22:57;;;;;;;13.60;8.97;;;15.50;99.90;;;;;;4396614;28;659550;-74
2023/05/21 01:25:44;;;;;;;15.73;9.17;;;15.50;99.90;;;;;;4435647;28;659183;-74
2023/05/21 01:28:33;;;;;;;13.00;8.40;;;15.50;99.90;;;;;;4418770;28;660674;-75
2023/05/21 01:31:23;;;;;;;15.83;9.30;;;15.50;99.90;;;;;;4424734;28;659633;-73
2023/05/21 01:34:11;;;;;;;18.33;8.68;;;15.50;99.90;;;;;;4420792;28;659887;-73
2023/05/21 01:37:04;;;;;;;14.87;8.60;;;15.50;99.90;;;;;;4438456;28;659888;-74
2023/05/21 01:39:55;;;;;;;14.13;7.73;;;15.40;99.90;;;;;;4390893;28;659535;-75
2023/05/21 01:42:43;;;;;;;13.97;8.30;;;15.50;99.90;;;;;;4414713;28;661097;-74
2023/05/21 01:45:30;;;;;;;12.50;7.80;;;15.50;99.90;;;;;;4420063;28;659476;-74
2023/05/21 01:48:18;;;;;;;12.63;8.20;;;15.50;99.90;;;;;;4443445;28;661027;-75
2023/05/21 01:51:05;;;;;;;14.73;8.30;;;15.50;99.90;;;;;;4437234;28;659761;-74
2023/05/21 01:53:53;;;;;;;19.20;8.80;;;15.50;99.90;;;;;;4442785;28;661476;-73
2023/05/21 01:56:41;;;;;;;12.87;8.50;;;15.50;99.90;;;;;;4434657;28;660357;-73
2023/05/21 01:59:29;;;;;;;12.50;7.70;;;15.50;99.90;;;;;;4441390;28;659655;-74
2023/05/21 02:02:16;;;;;;;14.30;8.90;;;15.50;99.90;;;;;;4423965;28;660064;-73
2023/05/21 02:05:04;;;;;;;15.87;7.90;;;15.50;99.90;;;;;;4441302;28;661425;-74
2023/05/21 02:07:52;;;;;;;10.57;7.67;;;15.50;99.90;;;;;;4425823;28;660052;-74
2023/05/21 02:10:39;;;;;;;11.73;7.50;;;15.40;99.90;;;;;;4439476;28;660192;-74
2023/05/21 02:13:27;;;;;;;14.00;7.50;;;15.40;99.90;;;;;;4424953;28;660006;-74
2023/05/21 02:16:15;;;;;;;17.33;7.63;;;15.40;1.00;;;;;;4433925;28;659273;-73
2023/05/21 02:19:03;;;;;;;12.30;7.80;;;15.40;1.00;;;;;;4441878;28;659300;-73
2023/05/21 02:21:51;;;;;;;10.70;7.50;;;15.40;1.00;;;;;;4405263;28;659305;-72
2023/05/21 02:24:38;;;;;;;15.67;7.90;;;15.30;1.00;;;;;;4426385;28;659298;-74
2023/05/21 02:27:27;;;;;;;12.27;7.80;;;15.30;1.00;;;;;;4418247;28;658590;-73
2023/05/21 02:30:16;;;;;;;9.87;7.23;;;15.30;1.00;;;;;;4427535;28;658609;-74
2023/05/21 02:33:03;;;;;;;12.27;7.27;;;15.30;1.00;;;;;;4401879;28;658772;-72
2023/05/21 02:35:50;;;;;;;13.50;8.03;;;15.20;1.00;;;;;;4406466;28;659736;-72
2023/05/21 02:38:39;;;;;;;12.63;7.83;;;15.20;1.00;;;;;;4342872;28;660144;-72
2023/05/21 02:41:26;;;;;;;18.03;8.27;;;15.10;1.00;;;;;;4229762;28;658480;-72
2023/05/21 02:44:14;;;;;;;13.53;8.40;;;15.10;1.00;;;;;;4275657;28;658332;-74
2023/05/21 02:47:02;;;;;;;16.73;8.30;;;15.00;1.00;;;;;;4408273;28;658705;-74
2023/05/21 02:49:50;;;;;;;13.17;8.17;;;15.00;1.00;;;;;;4424588;28;658718;-73
2023/05/21 02:52:37;;;;;;;12.73;7.80;;;15.00;99.90;;;;;;4402292;28;660311;-74
2023/05/21 02:55:24;;;;;;;15.03;8.63;;;14.90;99.90;;;;;;4428154;28;659522;-74
2023/05/21 02:58:12;;;;;;;14.17;8.17;;;14.80;1.00;;;;;;4404545;28;659758;-74
2023/05/21 03:00:59;;;;;;;12.50;8.20;;;14.80;99.90;;;;;;4424077;28;658336;-74
2023/05/21 03:03:48;;;;;;;16.87;8.47;;;14.70;99.90;;;;;;4403267;28;659907;-73
2023/05/21 03:06:35;;;;;;;13.43;8.03;;;14.70;1.00;;;;;;4410840;28;659999;-73
2023/05/21 03:09:22;;;;;;;16.47;8.27;;;14.70;1.00;;;;;;4428316;28;659221;-74
2023/05/21 03:12:10;;;;;;;12.00;7.87;;;14.60;99.90;;;;;;4418563;28;659238;-72
2023/05/21 03:14:58;;;;;;;13.23;8.07;;;14.60;1.00;;;;;;4428408;28;660986;-73
2023/05/21 03:17:47;;;;;;;11.80;7.60;;;14.60;99.90;;;;;;4403787;28;658674;-73
2023/05/21 03:20:42;;;;;;;11.57;7.40;;;14.50;1.00;;;;;;4434558;28;660124;-74
2023/05/21 03:23:29;;;;;;;14.80;8.20;;;14.50;99.90;;;;;;4421712;28;658339;-74
2023/05/21 03:26:16;;;;;;;13.25;8.93;;;14.50;1.00;;;;;;4421384;28;659784;-74
2023/05/21 03:29:03;;;;;;;13.67;8.67;;;14.40;99.90;;;;;;4441282;28;659126;-73
2023/05/21 03:31:52;;;;;;;17.03;8.03;;;14.40;1.00;;;;;;4420707;28;659343;-73
2023/05/21 03:34:39;;;;;;;12.43;7.80;;;14.40;1.00;;;;;;4440221;28;659723;-74
2023/05/21 03:37:28;;;;;;;13.07;7.33;;;14.30;99.90;;;;;;4424222;28;658984;-74
2023/05/21 03:40:15;;;;;;;12.33;7.80;;;14.30;99.90;;;;;;4417959;28;659451;-73
2023/05/21 03:43:03;;;;;;;12.47;7.30;;;14.30;99.90;;;;;;4439365;28;660564;-74
2023/05/21 03:45:50;;;;;;;10.57;7.37;;;14.30;99.90;;;;;;4431762;28;659806;-73
2023/05/21 03:48:38;;;;;;;11.53;7.33;;;14.30;99.90;;;;;;4438483;28;660996;-74
2023/05/21 03:51:26;;;;;;;12.30;7.10;;;14.20;1.00;;;;;;4428506;28;659678;-72
2023/05/21 03:54:14;;;;;;;12.37;7.53;;;14.20;99.90;;;;;;4441545;28;658640;-74
2023/05/21 03:57:01;;;;;;;10.63;7.07;;;14.20;1.00;;;;;;4420875;28;660135;-74
2023/05/21 03:59:49;;;;;;;16.40;7.20;;;14.20;1.00;;;;;;4444400;28;659529;-74
2023/05/21 04:02:36;;;;;;;13.03;7.43;;;14.20;1.00;;;;;;4419105;28;658740;-74
2023/05/21 04:05:23;;;;;;;14.57;6.80;;;14.20;1.00;;;;;;4445352;28;659216;-74
2023/05/21 04:08:10;;;;;;;14.07;7.30;;;14.10;1.00;;;;;;4420245;28;658906;-73
2023/05/21 04:10:59;;;;;;;14.10;6.80;;;14.20;1.00;;;;;;4441577;28;660026;-73
2023/05/21 04:13:46;;;;;;;13.70;6.70;;;14.30;1.00;;;;;;4422892;28;658828;-74
2023/05/21 04:16:37;;;;;;;8.90;6.77;;;14.40;15.30;;;;;;4437114;28;658693;-74
2023/05/21 04:19:24;;;;;;;12.93;6.73;;;14.40;1.00;;;;;;4419811;28;659445;-74
2023/05/21 04:22:11;;;;;;;13.20;6.60;;;14.50;1.00;;;;;;4423604;28;659034;-74
2023/05/21 04:24:59;;;;;;;12.57;6.23;;;14.60;1.00;;;;;;4439269;28;658841;-73
2023/05/21 04:27:48;;;;;;;11.40;6.60;;;14.70;1.00;;;;;;4422831;28;658750;-73
2023/05/21 04:30:36;;;;;;;9.43;6.03;;;14.70;1.00;;;;;;4418800;28;658813;-73
2023/05/21 04:33:23;;;;;;;10.23;6.50;;;14.90;56.50;;;;;;4447183;28;658046;-74
2023/05/21 04:36:10;;;;;;;8.53;5.70;;;15.00;99.90;;;;;;4418172;28;659418;-73
2023/05/21 04:38:57;;;;;;;12.30;6.00;;;15.00;89.30;;;;;;4442512;28;659339;-74
2023/05/21 04:41:44;;;;;;;10.73;5.90;;;15.10;1.00;;;;;;4433528;28;659698;-74
2023/05/21 04:44:33;;;;;;;9.47;5.87;;;15.30;1.00;;;;;;4419604;28;659689;-74
2023/05/21 04:47:20;;;;;;;9.07;5.47;;;15.40;1.00;;;;;;4422640;28;657569;-74
2023/05/21 04:50:09;;;;;;;14.37;5.50;;;15.40;1.00;;;;;;4445178;28;657746;-74
2023/05/21 04:52:57;;;;;;;10.13;5.83;;;15.50;1.00;;;;;;4419861;28;658655;-73
2023/05/21 04:55:45;;;;;;;9.60;5.27;;;15.60;1.00;;;;;;4438263;28;658795;-74
2023/05/21 04:58:33;;;;;;;10.60;5.77;;;15.70;99.90;;;;;;4416809;28;659279;-74
2023/05/21 05:01:22;;;;;;;12.93;5.63;;;15.70;99.90;;;;;;4429962;28;659566;-73
2023/05/21 05:04:09;;;;;;;11.70;5.77;;;15.80;99.90;;;;;;4441396;28;659432;-74
2023/05/21 05:06:57;;;;;;;17.23;5.70;;;15.90;1.00;;;;;;4422918;28;660801;-74
2023/05/21 05:09:44;;;;;;;8.13;5.40;;;16.00;1.00;;;;;;4437801;28;658549;-74
2023/05/21 05:12:31;;;;;;;8.20;5.50;;;16.10;1.00;;;;;;4421431;28;657422;-74
2023/05/21 05:15:18;;;;;;;9.27;5.13;;;16.20;1.00;;;;;;4442679;28;659504;-75
2023/05/21 05:18:08;;;;;;;8.17;5.27;;;16.20;99.90;;;;;;4424706;28;657486;-74
2023/05/21 05:20:55;;;;;;;11.63;5.33;;;16.40;1.00;;;;;;4428370;28;658459;-73
2023/05/21 05:23:42;;;;;;;9.87;5.37;;;16.50;44.20;;;;;;4436987;28;659888;-74
2023/05/21 05:26:30;;;;;;;14.27;5.17;;;16.60;99.90;;;;;;4438261;28;659264;-73
2023/05/21 05:29:17;;;;;;;8.73;5.40;;;16.70;4.40;;;;;;4444249;28;659920;-72
2023/05/21 05:32:06;;;;;;;12.10;5.20;;;16.80;86.00;;;;;;4450159;28;658368;-74
2023/05/21 05:34:55;;;;;;;13.43;5.30;;;16.90;99.90;;;;;;4440535;28;659768;-74
2023/05/21 05:37:42;;;;;;;11.43;5.60;;;16.90;99.90;;;;;;4418404;28;660641;-74
2023/05/21 05:40:29;;;;;;;12.57;5.70;;;17.00;1.00;;;;;;4440560;28;660142;-74
2023/05/21 05:43:16;;;;;;;9.00;5.10;;;17.10;1.00;;;;;;4422365;28;658793;-74
2023/05/21 05:46:04;;;;;;;12.50;5.40;;;17.20;1.00;;;;;;4440086;28;657580;-74
2023/05/21 05:48:51;;;;;;;11.57;5.17;;;17.30;1.00;;;;;;4415760;28;658919;-74
2023/05/21 05:51:40;;;;;;;8.43;5.17;;;17.30;1.00;;;;;;4440369;28;659914;-74
2023/05/21 05:54:28;;;;;;;11.27;5.00;;;17.30;1.00;;;;;;4410183;28;658317;-75
2023/05/21 05:57:15;;;;;;;11.97;5.20;;;17.40;1.00;;;;;;4434488;28;660315;-72
2023/05/21 06:00:03;;;;;;;12.77;5.40;;;17.50;1.00;;;;;;4443657;28;659532;-75
2023/05/21 06:02:50;;;;;;;12.53;5.13;;;17.70;1.00;;;;;;4424145;28;659015;-73
2023/05/21 06:05:37;;;;;;;13.67;5.43;;;17.80;1.00;;;;;;4441809;28;659081;-74
2023/05/21 06:08:26;;;;;;;8.10;5.03;;;18.00;1.00;;;;;;4440101;28;659297;-74
2023/05/21 06:11:15;;;;;;;8.87;5.17;;;18.20;1.00;;;;;;4417277;28;658138;-74
2023/05/21 06:14:03;;;;;;;6.10;5.00;;;18.40;1.00;;;;;;4412093;28;659577;-76
2023/05/21 06:16:50;;;;;;;8.53;5.10;;;18.50;1.00;;;;;;4430359;28;657578;-72
2023/05/21 06:19:37;;;;;;;7.80;4.47;;;18.50;1.00;;;;;;4440947;28;658345;-74
2023/05/21 06:22:25;;;;;;;8.53;5.17;;;18.70;1.00;;;;;;4439645;28;658044;-74
2023/05/21 06:25:14;;;;;;;11.17;5.10;;;18.80;1.00;;;;;;4443655;28;657628;-74
2023/05/21 06:28:02;;;;;;;9.97;5.20;;;18.90;1.00;;;;;;4419703;28;658440;-74
2023/05/21 06:30:49;;;;;;;11.53;5.00;;;19.10;1.00;;;;;;4436914;28;657691;-76
2023/05/21 06:33:36;;;;;;;9.60;4.90;;;19.20;1.00;;;;;;4424991;28;658626;-77
2023/05/21 06:36:25;;;;;;;7.10;4.80;;;19.40;1.00;;;;;;4443390;28;658534;-76
2023/05/21 06:39:12;;;;;;;10.40;5.13;;;19.50;1.00;;;;;;4424389;28;657709;-76
2023/05/21 06:42:01;;;;;;;10.60;4.90;;;19.60;1.00;;;;;;4440167;28;658923;-75
2023/05/21 06:44:48;;;;;;;9.10;4.77;;;19.80;1.00;;;;;;4417164;28;659590;-76
2023/05/21 06:47:35;;;;;;;12.37;4.60;;;19.80;1.00;;;;;;4430154;28;657664;-74
2023/05/21 06:50:22;;;;;;;10.53;5.27;;;19.80;1.00;;;;;;4443384;28;659396;-77
2023/05/21 06:53:10;;;;;;;11.77;4.50;;;20.00;1.00;;;;;;4439020;28;659078;-73
2023/05/21 06:55:57;;;;;;;13.93;4.60;;;20.10;1.00;;;;;;4443686;28;659079;-77
2023/05/21 06:58:46;;;;;;;19.60;4.90;;;20.20;1.00;;;;;;4441941;28;659084;-77
2023/05/21 07:01:33;;;;;;;6.77;4.50;;;20.30;1.00;;;;;;4414115;28;659430;-76
2023/05/21 07:04:21;;;;;;;13.23;4.47;;;20.40;1.00;;;;;;4423178;28;657501;-77
2023/05/21 07:07:08;;;;;;;11.80;4.43;;;20.40;1.00;;;;;;4445471;28;659881;-76
2023/05/21 07:09:55;;;;;;;7.90;4.23;;;20.70;1.00;;;;;;4421786;28;658673;-73
2023/05/21 07:12:42;;;;;;;8.77;4.10;;;20.90;1.00;;;;;;4446069;28;658119;-77
2023/05/21 07:15:31;;;;;;;12.33;4.33;;;21.10;1.00;;;;;;4440349;28;657513;-77
2023/05/21 07:18:19;;;;;;;7.97;3.80;;;21.20;1.00;;;;;;4417947;28;660472;-77
2023/05/21 07:21:06;;;;;;;13.60;3.90;;;21.40;1.00;;;;;;4423045;28;657295;-74
2023/05/21 07:23:53;;;;;;;9.77;3.60;;;21.60;1.00;;;;;;4441935;28;659666;-73
2023/05/21 07:26:40;;;;;;;9.80;4.33;;;21.60;99.90;;;;;;4420200;28;658111;-73
2023/05/21 07:29:27;;;;;;;11.70;4.13;;;21.70;1.00;;;;;;4440954;28;660147;-76
2023/05/21 07:32:16;;;;;;;9.93;3.90;;;21.70;1.00;;;;;;4439057;28;659374;-76
2023/05/21 07:35:04;;;;;;;6.50;3.87;;;21.80;1.00;;;;;;4442486;28;658036;-76
2023/05/21 07:37:51;;;;;;;6.80;3.23;;;22.00;1.00;;;;;;4430266;28;657702;-78
2023/05/21 07:40:38;;;;;;;7.57;3.63;;;22.00;1.00;;;;;;4446936;28;657884;-78
2023/05/21 07:43:26;;;;;;;8.93;3.33;;;22.00;62.10;;;;;;4426241;28;657989;-73
2023/05/21 07:46:13;;;;;;;10.00;3.97;;;22.10;99.90;;;;;;4443850;28;658922;-80
2023/05/21 07:49:01;;;;;;;10.63;3.50;;;22.20;99.70;;;;;;4423137;28;659643;-73
2023/05/21 07:51:49;;;;;;;11.70;3.63;;;22.50;1.50;;;;;;4436789;28;660191;-77
2023/05/21 07:54:36;;;;;;;9.17;3.83;;;22.70;99.90;;;;;;4421388;28;658647;-77
2023/05/21 07:57:23;;;;;;;12.30;3.97;;;22.80;51.60;;;;;;4437938;28;659242;-76
2023/05/21 08:00:13;;;;;;;11.80;3.40;;;23.00;99.90;;;;;;4420249;28;660318;-77
2023/05/21 08:03:01;;;;;;;14.47;3.80;;;23.20;99.90;;;;;;4428266;28;659565;-73
2023/05/21 08:05:49;;;;;;;7.85;3.50;;;23.30;99.90;;;;;;4442711;28;659624;-76
2023/05/21 08:08:36;;;;;;;9.85;3.50;;;23.50;99.90;;;;;;4419990;28;658884;-76
2023/05/21 08:11:25;;;;;;;10.25;3.40;;;23.70;99.90;;;;;;4439071;28;659156;-76
2023/05/21 08:14:13;;;;;;;14.30;3.47;;;23.90;99.90;;;;;;4415065;28;660282;-75
2023/05/21 08:17:00;;;;;;;10.85;3.45;;;24.00;99.90;;;;;;4429096;28;660098;-73
2023/05/21 08:19:47;;;;;;;8.90;3.40;;;24.20;99.90;;;;;;4444070;28;659987;-77
2023/05/21 08:22:36;;;;;;;8.35;3.00;;;24.20;99.90;;;;;;4438171;28;659472;-76
2023/05/21 08:25:23;;;;;;;8.45;2.63;;;24.10;99.90;;;;;;4421494;28;659487;-75
2023/05/21 08:28:10;;;;;;;8.02;3.00;;;24.20;99.90;;;;;;4422825;28;658477;-75
2023/05/21 08:30:58;;;;;;;6.85;2.78;;;24.30;99.90;;;;;;4439524;28;659342;-77
2023/05/21 08:33:50;;;;;;;6.38;2.75;;;24.40;99.90;;;;;;4434355;28;659056;-73
2023/05/21 08:36:37;;;;;;;5.68;2.53;;;24.30;99.90;;;;;;4422128;28;660304;-77
2023/05/21 08:39:27;;;;;;;5.13;2.40;;;24.30;99.90;;;;;;4441492;28;658488;-75
2023/05/21 08:42:18;;;;;;;9.32;2.72;;;24.20;1.00;;;;;;4365990;28;658843;-72
2023/05/21 08:45:07;;;;;;;7.57;2.58;;;24.40;99.90;;;;;;4244043;28;657793;-73
2023/05/21 08:47:55;;;;;;;9.25;2.80;;;24.40;99.90;;;;;;4277549;28;658611;-74
2023/05/21 08:50:42;;;;;;;7.20;2.53;;;24.20;99.90;;;;;;4419125;28;659102;-77
2023/05/21 08:53:31;;;;;;;7.82;2.63;;;24.50;99.90;;;;;;4434098;28;658753;-73
2023/05/21 08:56:20;;;;;;;10.32;3.42;;;24.60;99.90;;;;;;4439332;28;659006;-78
2023/05/21 08:59:07;;;;;;;9.45;2.47;;;24.70;1.00;;;;;;4419597;28;661278;-76
2023/05/21 09:01:56;;;;;;;10.82;2.60;;;24.60;99.90;;;;;;4434509;28;658238;-75
2023/05/21 09:04:48;;;;;;;5.40;2.80;;;24.70;1.00;;;;;;4415717;28;660455;-76
2023/05/21 09:07:39;;;;;;;3.05;2.28;;;24.70;1.00;;;;;;4405257;28;657741;-74
2023/05/21 09:10:32;;;;;;;3.38;2.30;;;25.00;1.00;;;;;;4424238;28;657776;-77
2023/05/21 09:13:20;;;;;;;7.82;2.50;;;25.20;1.00;;;;;;4415886;28;657917;-77
2023/05/21 09:16:08;;;;;;;13.38;2.53;;;25.00;1.00;;;;;;4418096;28;658700;-77
2023/05/21 09:18:56;;;;;;;4.97;2.40;;;25.10;55.10;;;;;;4421545;28;658945;-73
2023/05/21 09:21:43;;;;;;;6.95;2.47;;;25.10;99.90;;;;;;4443671;28;660026;-76
2023/05/21 09:24:31;;;;;;;5.05;2.45;;;25.10;99.90;;;;;;4428298;28;659178;-74
2023/05/21 09:27:18;;;;;;;6.40;2.20;;;25.30;1.00;;;;;;4442987;28;659602;-77
2023/05/21 09:30:10;;;;;;;6.70;2.35;;;25.40;27.20;;;;;;4424255;28;658197;-74
2023/05/21 09:32:58;;;;;;;5.65;2.50;;;25.80;1.00;;;;;;4418134;28;660060;-77
2023/05/21 09:35:46;;;;;;;4.18;2.17;;;25.60;1.00;;;;;;4426410;28;657724;-74
2023/05/21 09:38:34;;;;;;;5.68;2.58;;;25.60;1.00;;;;;;4440374;28;658645;-75
2023/05/21 09:41:21;;;;;;;9.13;2.80;;;25.50;1.00;;;;;;4419059;28;659545;-76
2023/05/21 09:44:09;;;;;;;4.63;2.67;;;25.30;99.90;;;;;;4440431;28;658499;-74
2023/05/21 09:46:58;;;;;;;5.55;2.67;;;24.90;1.00;;;;;;4417212;28;658884;-78
2023/05/21 09:49:45;;;;;;;9.73;2.50;;;25.00;1.00;;;;;;4422597;28;657755;-76
2023/05/21 09:52:33;;;;;;;5.60;2.05;;;25.10;1.00;;;;;;4435597;28;659204;-78
2023/05/21 09:55:22;;;;;;;4.93;2.65;;;25.60;1.00;;;;;;4422376;28;657837;-74
2023/05/21 09:58:10;;;;;;;7.82;2.55;;;26.00;1.00;;;;;;4441079;28;657644;-77
2023/05/21 10:00:58;;;;;;;6.07;2.53;;;26.10;1.00;;;;;;4419471;28;658236;-76
2023/05/21 10:03:48;;;;;;;6.07;2.60;;;26.20;1.00;;;;;;4426510;28;657459;-75
2023/05/21 10:06:37;;;;;;;7.10;3.17;;;26.20;1.00;;;;;;4438492;28;657359;-75
2023/05/21 10:09:24;;;;;;;6.43;2.70;;;26.40;1.00;;;;;;4444380;28;657832;-78
2023/05/21 10:12:12;;;;;;;7.63;2.40;;;26.30;1.00;;;;;;4426906;28;658128;-76
2023/05/21 10:15:01;;;;;;;6.47;2.80;;;26.10;82.00;;;;;;4449172;28;657989;-77
2023/05/21 10:17:48;;;;;;;4.80;2.63;;;26.00;1.00;;;;;;4421558;28;659307;-78
2023/05/21 10:20:37;;;;;;;6.75;2.60;;;26.20;1.00;;;;;;4429319;28;657430;-75
2023/05/21 10:23:24;;;;;;;8.27;2.90;;;26.10;1.00;;;;;;4447440;28;657940;-77
2023/05/21 10:26:11;;;;;;;6.38;2.70;;;26.20;1.00;;;;;;4423533;28;658367;-77
2023/05/21 10:28:59;;;;;;;7.65;2.50;;;26.10;10.80;;;;;;4448006;28;659071;-78
2023/05/21 10:31:48;;;;;;;12.90;2.55;;;26.10;99.90;;;;;;4429459;28;659181;-76
2023/05/21 10:34:35;;;;;;;6.20;2.55;;;26.10;99.90;;;;;;4420194;28;660175;-73
2023/05/21 10:37:25;;;;;;;5.75;2.50;;;26.30;19.10;;;;;;4450738;28;659436;-77
2023/05/21 10:40:13;;;;;;;3.38;2.53;;;26.50;1.00;;;;;;4429003;28;659307;-76
2023/05/21 10:43:13;;;;;;;5.88;2.78;;;26.30;99.90;;;;;;4427736;28;657424;-75
2023/05/21 10:46:28;;;;;;;8.70;2.80;;;26.40;99.90;;;;;;4422283;28;658192;-76
2023/05/21 10:49:27;;;;;;;4.68;2.80;;;26.30;99.90;;;;;;4406910;28;658983;-75
2023/05/21 10:52:22;;;;;;;4.47;2.42;;;26.70;99.90;;;;;;4419449;28;658939;-75
2023/05/21 10:55:22;;;;;;;5.47;2.60;;;27.00;99.90;;;;;;4412275;28;659438;-79
2023/05/21 10:58:20;;;;;;;4.97;2.40;;;26.60;99.90;;;;;;4418394;28;658628;-77
2023/05/21 11:01:08;;;;;;;8.93;2.60;;;26.30;99.90;;;;;;4394620;28;659298;-76
2023/05/21 11:03:55;;;;;;;4.70;2.35;;;26.20;99.90;;;;;;4433685;28;658733;-75
2023/05/21 11:06:47;;;;;;;4.20;2.58;;;26.40;75.70;;;;;;4439666;28;659370;-77
2023/05/21 11:09:34;;;;;;;5.32;2.67;;;26.50;99.90;;;;;;4417811;28;659456;-78
2023/05/21 11:12:23;;;;;;;4.40;2.65;;;26.70;99.90;;;;;;4422463;28;658746;-77
2023/05/21 11:15:11;;;;;;;6.35;2.67;;;26.80;37.60;;;;;;4428212;28;658595;-74
2023/05/21 11:17:58;;;;;;;5.45;2.78;;;26.70;1.00;;;;;;4451126;28;659948;-76
2023/05/21 11:20:50;;;;;;;13.68;2.80;;;26.80;1.00;;;;;;4432589;28;657655;-75
2023/05/21 11:23:48;;;;;;;7.30;2.90;;;26.70;99.90;;;;;;4422062;28;659600;-77
2023/05/21 11:27:03;;;;;;;6.00;2.80;;;26.50;71.70;;;;;;4403350;28;658454;-76
2023/05/21 11:29:52;;;;;;;8.43;2.78;;;26.80;49.70;;;;;;4402571;28;658951;-74
2023/05/21 11:32:39;;;;;;;7.28;2.63;;;27.20;99.90;;;;;;4435531;28;658532;-78
2023/05/21 11:35:27;;;;;;;7.28;2.70;;;27.20;99.90;;;;;;4423955;28;659552;-73
2023/05/21 11:38:15;;;;;;;9.27;2.80;;;27.30;99.90;;;;;;4435569;28;659040;-74
2023/05/21 11:41:03;;;;;;;4.65;2.70;;;27.10;1.00;;;;;;4452777;28;660187;-79
2023/05/21 11:43:57;;;;;;;5.28;3.00;;;27.00;99.90;;;;;;4425057;28;657743;-75
2023/05/21 11:46:46;;;;;;;9.35;2.97;;;27.20;99.90;;;;;;4418400;28;659099;-79
2023/05/21 11:49:33;;;;;;;7.32;2.70;;;27.20;1.00;;;;;;4419651;28;658667;-76
2023/05/21 11:52:20;;;;;;;8.52;2.65;;;27.30;1.00;;;;;;4416030;28;657938;-74
2023/05/21 11:55:08;;;;;;;6.07;3.00;;;27.00;1.00;;;;;;4451380;28;658705;-76
2023/05/21 11:57:55;;;;;;;3.90;2.72;;;26.90;1.00;;;;;;4421609;28;658198;-75
2023/05/21 12:00:43;;;;;;;7.57;2.80;;;26.70;99.90;;;;;;4440702;28;658677;-78
2023/05/21 12:03:34;;;;;;;4.35;2.45;;;27.00;99.90;;;;;;4433527;28;658495;-74
2023/05/21 12:06:26;;;;;;;4.27;2.57;;;27.40;99.90;;;;;;4415695;28;659260;-76
2023/05/21 12:09:14;;;;;;;9.93;2.90;;;27.30;99.90;;;;;;4415929;28;659785;-77
2023/05/21 12:12:01;;;;;;;3.92;2.72;;;27.10;1.00;;;;;;4426378;28;658843;-76
2023/05/21 12:14:49;;;;;;;7.63;2.70;;;27.30;1.00;;;;;;4445246;28;658744;-79
2023/05/21 12:17:37;;;;;;;9.75;2.65;;;27.30;19.80;;;;;;4423732;28;657280;-75
2023/05/21 12:20:29;;;;;;;6.30;3.00;;;27.10;99.90;;;;;;4433090;28;659453;-74
2023/05/21 12:23:20;;;;;;;9.10;2.83;;;26.70;99.90;;;;;;4422805;28;659359;-78
2023/05/21 12:26:08;;;;;;;6.75;2.70;;;26.80;1.00;;;;;;4425303;28;659910;-79
2023/05/21 12:28:55;;;;;;;9.38;2.78;;;26.90;1.00;;;;;;4431397;28;657671;-74
2023/05/21 12:31:49;;;;;;;9.20;2.97;;;27.20;1.00;;;;;;4442726;28;658745;-79
2023/05/21 12:34:41;;;;;;;7.68;2.72;;;27.30;1.00;;;;;;4395411;28;657959;-78
2023/05/21 12:37:31;;;;;;;5.38;2.42;;;27.40;1.00;;;;;;4409591;28;657878;-78
2023/05/21 12:40:18;;;;;;;6.90;2.80;;;27.40;1.00;;;;;;4408364;28;658337;-79
2023/05/21 12:43:06;;;;;;;6.68;3.00;;;27.60;1.00;;;;;;4419209;28;657409;-76
2023/05/21 12:45:53;;;;;;;6.05;3.20;;;27.40;99.90;;;;;;4444769;28;658757;-78
2023/05/21 12:48:41;;;;;;;4.50;2.90;;;27.50;99.90;;;;;;4423820;28;658697;-75
2023/05/21 12:51:38;;;;;;;8.95;2.95;;;27.90;99.90;;;;;;4437337;28;658887;-77
2023/05/21 12:54:31;;;;;;;10.75;3.03;;;27.90;1.00;;;;;;4397544;28;659119;-75
2023/05/21 12:57:19;;;;;;;6.10;2.72;;;27.80;99.90;;;;;;4413345;28;659633;-78
2023/05/21 13:00:08;;;;;;;7.53;2.92;;;27.80;99.90;;;;;;4423507;28;658950;-78
2023/05/21 13:02:58;;;;;;;11.02;3.17;;;27.90;99.90;;;;;;4425834;28;658806;-77
2023/05/21 13:05:45;;;;;;;6.07;3.25;;;27.80;99.90;;;;;;4434812;28;659442;-77
2023/05/21 13:08:33;;;;;;;6.28;2.83;;;27.90;13.40;;;;;;4433716;28;660758;-77
2023/05/21 13:11:22;;;;;;;6.78;3.45;;;28.00;99.90;;;;;;4422302;28;658975;-75
2023/05/21 13:14:09;;;;;;;6.45;3.10;;;28.20;99.90;;;;;;4436268;28;658921;-78
2023/05/21 13:16:56;;;;;;;3.97;2.83;;;28.00;99.90;;;;;;4421710;28;658436;-75
2023/05/21 13:19:44;;;;;;;6.30;3.40;;;28.00;99.90;;;;;;4430136;28;660849;-77
2023/05/21 13:22:31;;;;;;;7.45;2.97;;;28.30;99.90;;;;;;4418784;28;658327;-77
2023/05/21 13:25:19;;;;;;;7.53;3.05;;;28.10;1.00;;;;;;4442327;28;659022;-80
2023/05/21 13:28:09;;;;;;;5.97;2.88;;;27.50;99.90;;;;;;4414808;28;657566;-77
2023/05/21 13:30:56;;;;;;;8.77;3.10;;;27.40;1.00;;;;;;4422453;28;658750;-79
2023/05/21 13:33:43;;;;;;;8.93;3.23;;;27.70;1.00;;;;;;4429830;28;658954;-77
2023/05/21 13:36:30;;;;;;;7.50;3.10;;;27.90;1.00;;;;;;4415164;28;657950;-77
2023/05/21 13:39:18;;;;;;;7.18;3.20;;;28.10;1.00;;;;;;4428616;28;659353;-77
2023/05/21 13:42:05;;;;;;;7.45;2.80;;;28.40;1.00;;;;;;4427572;28;658073;-75
2023/05/21 13:44:54;;;;;;;6.85;2.72;;;28.50;1.00;;;;;;4436385;28;659079;-77
2023/05/21 13:47:42;;;;;;;6.13;2.97;;;27.90;1.00;;;;;;4412543;28;657336;-78
2023/05/21 13:50:29;;;;;;;6.65;3.20;;;27.30;1.00;;;;;;4454055;28;658296;-79
2023/05/21 13:53:16;;;;;;;7.13;3.28;;;27.40;99.90;;;;;;4430971;28;657857;-78
2023/05/21 13:56:04;;;;;;;6.28;3.15;;;27.50;99.90;;;;;;4444095;28;659956;-79
2023/05/21 13:58:51;;;;;;;7.15;3.20;;;27.50;99.90;;;;;;4421776;28;658708;-79
2023/05/21 14:01:40;;;;;;;4.40;3.05;;;27.60;99.90;;;;;;4436978;28;659485;-78
2023/05/21 14:04:27;;;;;;;6.70;2.88;;;27.90;99.90;;;;;;4425079;28;659455;-76
2023/05/21 14:07:14;;;;;;;6.53;2.85;;;27.70;1.00;;;;;;4454483;28;660421;-79
2023/05/21 14:10:01;;;;;;;12.10;3.50;;;28.00;99.90;;;;;;4437267;28;657451;-78
2023/05/21 14:12:49;;;;;;;6.05;2.85;;;28.00;1.00;;;;;;4438494;28;660258;-78
2023/05/21 14:15:36;;;;;;;5.90;2.78;;;28.20;99.90;;;;;;4429548;28;658090;-79
2023/05/21 14:18:25;;;;;;;4.35;2.67;;;28.30;99.90;;;;;;4439569;28;659680;-78
2023/05/21 14:21:12;;;;;;;9.43;4.47;;;28.30;99.90;;;;;;4419732;28;659815;-77
2023/05/21 14:23:59;;;;;;;6.40;2.67;;;28.70;1.00;;;;;;4436819;28;658816;-80